createdAt,value
2022-11-23T00:11:02.201Z,99189.77
2022-11-23T00:32:48.057Z,99185.69
2022-11-23T00:54:33.923Z,99205.23
2022-11-23T01:16:24.435Z,99204.27
2022-11-23T01:38:13.831Z,99212.50
2022-11-23T02:00:04.859Z,99217.46
2022-11-23T02:21:59.128Z,99222.30
2022-11-23T02:43:45.417Z,99223.22
2022-11-23T03:05:31.706Z,99223.81
2022-11-23T03:27:17.789Z,99223.73
2022-11-23T03:49:04.929Z,99221.64
2022-11-23T04:10:52.081Z,99214.45
2022-11-23T04:32:41.756Z,99214.44
2022-11-23T04:54:29.037Z,99209.27
2022-11-23T05:16:16.793Z,99208.09
2022-11-23T05:38:02.886Z,99216.09
2022-11-23T05:59:50.502Z,99218.70
2022-11-23T06:21:39.849Z,99230.23
2022-11-23T06:43:26.752Z,99268.23
2022-11-23T07:05:13.466Z,99286.77
2022-11-23T07:26:59.643Z,99297.34
2022-11-23T07:48:45.497Z,99304.67
2022-11-23T08:10:33.049Z,99332.15
2022-11-23T08:32:19.087Z,99347.80
2022-11-23T08:54:04.885Z,99339.71
2022-11-23T09:15:50.755Z,99323.38
2022-11-23T09:37:36.942Z,99308.46
2022-11-23T09:59:33.116Z,99292.28
2022-11-23T10:21:30.129Z,99272.48
2022-11-23T10:43:20.232Z,99270.70
2022-11-23T11:27:36.105Z,99266.16
2022-11-23T11:49:26.358Z,99258.33
2022-11-23T12:11:14.731Z,99246.66
2022-11-23T12:33:26.709Z,99247.38
2022-11-23T12:55:25.190Z,99240.74
2022-11-23T13:17:27.196Z,99252.46
2022-11-23T13:39:56.576Z,99264.27
2022-11-23T14:02:04.129Z,99273.40
2022-11-23T14:24:31.912Z,99288.38
2022-11-23T14:46:20.739Z,99304.20
2022-11-23T15:08:13.383Z,99309.52
2022-11-23T15:30:01.225Z,99312.41
2022-11-23T15:51:48.844Z,99312.66
2022-11-23T16:13:40.320Z,99306.08
2022-11-23T16:35:26.188Z,99307.42
2022-11-23T16:57:25.246Z,99304.01
2022-11-23T17:19:17.696Z,99305.63
2022-11-23T17:41:03.534Z,99309.94
2022-11-23T18:02:49.921Z,99313.27
2022-11-23T18:24:35.785Z,99341.12
2022-11-23T18:46:21.840Z,99346.38
2022-11-23T19:08:10.038Z,99352.67
2022-11-23T19:29:58.915Z,99364.59
2022-11-23T19:51:45.444Z,99377.63
2022-11-23T20:13:31.191Z,99379.11
2022-11-23T20:35:15.768Z,99411.60
2022-11-23T20:57:01.624Z,99418.06
2022-11-23T21:18:46.416Z,99414.23
2022-11-23T21:40:32.801Z,99425.42
2022-11-23T22:02:18.728Z,99443.93
2022-11-23T22:24:05.834Z,99456.48
2022-11-23T22:45:51.940Z,99474.17
2022-11-23T23:07:38.269Z,99479.84
2022-11-23T23:29:24.694Z,99492.33
2022-11-23T23:51:12.717Z,99497.61
